createdAt,value
2022-10-18T00:01:55.065Z,15.27
2022-10-18T00:04:58.536Z,15.02
2022-10-18T00:08:01.955Z,15.88
2022-10-18T00:11:06.136Z,15.10
2022-10-18T00:14:09.833Z,17.87
2022-10-18T00:17:13.107Z,15.17
2022-10-18T00:20:17.673Z,15.68
2022-10-18T00:23:20.947Z,15.13
2022-10-18T00:26:27.225Z,17.38
2022-10-18T00:29:30.578Z,19.13
2022-10-18T00:32:38.617Z,16.23
2022-10-18T00:35:41.968Z,14.90
2022-10-18T00:38:46.217Z,19.20
2022-10-18T00:41:50.104Z,19.73
2022-10-18T00:45:15.728Z,18.23
2022-10-18T00:48:20.615Z,17.97
2022-10-18T00:51:33.210Z,16.48
2022-10-18T00:54:39.178Z,16.92
2022-10-18T00:57:44.909Z,16.13
2022-10-18T01:00:48.452Z,17.03
2022-10-18T01:03:52.760Z,14.07
2022-10-18T01:07:04.659Z,15.20
2022-10-18T01:10:44.070Z,14.65
2022-10-18T01:14:19.902Z,14.63
2022-10-18T01:17:50.569Z,15.20
2022-10-18T01:21:15.194Z,16.83
2022-10-18T01:24:34.694Z,16.42
2022-10-18T01:28:20.250Z,15.30
2022-10-18T01:31:28.255Z,16.08
2022-10-18T01:34:36.376Z,16.50
2022-10-18T01:37:43.416Z,15.80
2022-10-18T01:40:51.339Z,15.55
2022-10-18T01:43:59.153Z,16.27
2022-10-18T01:47:04.034Z,16.30
2022-10-18T01:50:08.035Z,16.00
2022-10-18T01:53:29.838Z,16.03
2022-10-18T01:56:45.680Z,16.50
2022-10-18T02:00:13.095Z,16.02
2022-10-18T02:03:25.896Z,16.17
2022-10-18T02:06:35.625Z,16.17
2022-10-18T02:09:50.835Z,16.83
2022-10-18T02:12:56.513Z,16.17
2022-10-18T02:16:05.089Z,18.08
2022-10-18T02:19:18.365Z,17.50
2022-10-18T02:22:25.878Z,18.13
2022-10-18T02:25:32.341Z,18.63
2022-10-18T02:28:36.314Z,18.13
2022-10-18T02:31:48.741Z,20.30
2022-10-18T02:35:05.959Z,20.17
2022-10-18T02:38:11.598Z,19.17
2022-10-18T02:41:24.203Z,20.73
2022-10-18T02:44:27.591Z,25.27
2022-10-18T02:47:31.277Z,24.88
2022-10-18T02:50:36.495Z,22.42
2022-10-18T02:53:39.868Z,25.77
2022-10-18T02:56:43.162Z,25.20
2022-10-18T02:59:46.398Z,23.95
2022-10-18T03:02:49.744Z,33.50
2022-10-18T03:05:53.688Z,27.35
2022-10-18T03:08:57.080Z,28.10
2022-10-18T03:12:00.534Z,22.83
2022-10-18T03:15:04.212Z,24.10
2022-10-18T03:18:07.563Z,23.77
2022-10-18T03:21:11.222Z,22.98
2022-10-18T03:24:14.554Z,25.20
2022-10-18T03:27:17.865Z,22.27
2022-10-18T03:30:22.768Z,23.00
2022-10-18T03:33:26.172Z,22.63
2022-10-18T03:36:29.591Z,22.02
2022-10-18T03:39:33.036Z,21.97
2022-10-18T03:42:36.458Z,25.27
2022-10-18T03:45:40.590Z,25.20
2022-10-18T03:48:44.098Z,25.17
2022-10-18T03:51:47.310Z,25.05
2022-10-18T03:54:50.615Z,21.53
2022-10-18T03:57:53.922Z,22.80
2022-10-18T04:00:58.986Z,22.85
2022-10-18T04:04:02.339Z,21.63
2022-10-18T04:07:05.630Z,20.05
2022-10-18T04:10:09.322Z,20.17
2022-10-18T04:13:13.050Z,20.93
2022-10-18T04:16:16.357Z,24.48
2022-10-18T04:19:19.734Z,24.27
2022-10-18T04:22:23.134Z,25.23
2022-10-18T04:25:28.831Z,22.87
2022-10-18T04:28:33.305Z,23.70
2022-10-18T04:31:36.658Z,22.92
2022-10-18T04:34:40.099Z,22.27
2022-10-18T04:37:43.478Z,21.55
2022-10-18T04:40:48.469Z,25.17
2022-10-18T04:43:51.754Z,23.00
2022-10-18T04:46:55.116Z,23.85
2022-10-18T04:49:58.438Z,22.92
2022-10-18T04:53:01.712Z,22.98
2022-10-18T04:56:05.119Z,21.43
2022-10-18T04:59:08.359Z,20.63
2022-10-18T05:02:11.815Z,17.73
2022-10-18T05:05:15.157Z,19.10
2022-10-18T05:08:18.586Z,19.42
2022-10-18T05:11:21.982Z,19.10
2022-10-18T05:14:25.340Z,17.07
2022-10-18T05:17:28.805Z,20.52
2022-10-18T05:20:32.315Z,21.77
2022-10-18T05:23:35.728Z,24.08
2022-10-18T05:26:39.068Z,22.23
2022-10-18T05:29:42.509Z,21.97
2022-10-18T05:32:45.828Z,20.63
2022-10-18T05:35:49.168Z,20.10
2022-10-18T05:38:53.636Z,20.50
2022-10-18T05:41:58.193Z,19.67
2022-10-18T05:45:01.538Z,19.03
2022-10-18T05:48:07.551Z,19.05
2022-10-18T05:51:11.102Z,17.90
2022-10-18T05:54:14.885Z,19.20
2022-10-18T05:57:18.338Z,17.47
2022-10-18T06:00:21.671Z,27.13
2022-10-18T06:03:24.986Z,25.05
2022-10-18T06:06:28.389Z,22.80
2022-10-18T06:09:31.671Z,22.08
2022-10-18T06:12:35.127Z,20.07
2022-10-18T06:15:38.486Z,17.33
2022-10-18T06:18:42.303Z,14.70
2022-10-18T06:21:45.662Z,15.55
2022-10-18T06:24:50.905Z,14.23
2022-10-18T06:27:56.198Z,14.13
2022-10-18T06:30:59.599Z,12.70
2022-10-18T06:34:03.006Z,13.25
2022-10-18T06:37:06.402Z,11.95
2022-10-18T06:40:10.307Z,12.90
2022-10-18T06:43:20.894Z,13.63
2022-10-18T06:46:25.912Z,12.57
2022-10-18T06:49:29.227Z,12.98
2022-10-18T06:52:32.736Z,12.40
2022-10-18T06:55:36.505Z,12.85
2022-10-18T06:58:40.817Z,12.10
2022-10-18T07:01:44.713Z,12.23
2022-10-18T07:04:51.002Z,12.10
2022-10-18T07:07:56.432Z,12.43
2022-10-18T07:11:00.314Z,11.98
2022-10-18T07:14:05.268Z,12.07
2022-10-18T07:17:08.632Z,11.90
2022-10-18T07:20:12.849Z,11.60
2022-10-18T07:23:16.292Z,11.93
2022-10-18T07:26:30.850Z,12.23
2022-10-18T07:29:34.765Z,11.83
2022-10-18T07:32:38.355Z,12.33
2022-10-18T07:35:42.105Z,12.40
2022-10-18T07:38:45.406Z,12.70
2022-10-18T07:41:48.728Z,11.57
2022-10-18T07:44:52.377Z,13.30
2022-10-18T07:47:59.130Z,12.17
2022-10-18T07:51:03.479Z,13.00
2022-10-18T07:54:06.771Z,12.85
2022-10-18T07:57:10.048Z,12.38
2022-10-18T08:00:13.722Z,12.27
2022-10-18T08:03:18.509Z,12.43
2022-10-18T08:06:22.945Z,12.05
2022-10-18T08:09:26.355Z,13.05
2022-10-18T08:12:29.630Z,12.15
2022-10-18T08:15:32.841Z,12.30
2022-10-18T08:18:37.427Z,12.70
2022-10-18T08:21:40.811Z,12.10
2022-10-18T08:24:44.367Z,12.98
2022-10-18T08:27:47.651Z,13.25
2022-10-18T08:30:52.917Z,12.27
2022-10-18T08:34:00.080Z,13.07
2022-10-18T08:37:04.110Z,12.07
2022-10-18T08:40:08.122Z,12.77
2022-10-18T08:46:50.329Z,11.87
2022-10-18T08:50:06.286Z,11.93
2022-10-18T08:53:30.055Z,12.95
2022-10-18T08:56:34.656Z,12.25
2022-10-18T08:59:41.097Z,12.43
2022-10-18T09:03:03.785Z,13.57
2022-10-18T09:06:32.823Z,12.30
2022-10-18T09:10:02.934Z,12.40
2022-10-18T09:13:27.041Z,12.00
2022-10-18T09:16:45.838Z,12.20
2022-10-18T09:19:55.223Z,12.80
2022-10-18T09:23:21.212Z,11.00
2022-10-18T09:26:26.064Z,11.35
2022-10-18T09:29:45.716Z,11.40
2022-10-18T09:33:12.166Z,11.73
2022-10-18T09:36:23.182Z,12.13
2022-10-18T09:39:31.492Z,11.43
2022-10-18T09:42:42.859Z,11.32
2022-10-18T09:45:50.883Z,11.13
2022-10-18T09:49:06.092Z,11.18
2022-10-18T09:52:19.971Z,11.50
2022-10-18T09:55:32.465Z,11.07
2022-10-18T09:58:51.465Z,11.23
2022-10-18T10:01:54.992Z,10.45
2022-10-18T10:04:58.431Z,9.77
2022-10-18T10:08:02.966Z,9.80
2022-10-18T10:11:25.833Z,10.20
2022-10-18T10:14:30.825Z,9.93
2022-10-18T10:17:34.968Z,10.73
2022-10-18T10:20:53.761Z,10.43
2022-10-18T10:23:59.411Z,10.27
2022-10-18T10:27:05.940Z,9.20
2022-10-18T10:30:24.682Z,10.32
2022-10-18T10:33:38.937Z,8.95
2022-10-18T10:36:53.914Z,9.27
2022-10-18T10:40:18.359Z,9.33
2022-10-18T10:43:43.535Z,9.43
2022-10-18T10:46:49.421Z,8.98
2022-10-18T10:49:56.134Z,9.23
2022-10-18T10:52:59.821Z,9.23
2022-10-18T10:56:04.751Z,10.20
2022-10-18T10:59:15.755Z,9.07
2022-10-18T11:02:26.635Z,9.15
2022-10-18T11:05:30.386Z,8.68
2022-10-18T11:08:43.372Z,8.85
2022-10-18T11:12:02.571Z,9.50
2022-10-18T11:15:14.479Z,9.00
2022-10-18T11:18:46.483Z,8.48
2022-10-18T11:21:50.039Z,9.55
2022-10-18T11:24:53.366Z,9.02
2022-10-18T11:28:06.414Z,9.03
2022-10-18T11:31:25.152Z,8.80
2022-10-18T11:34:58.538Z,8.15
2022-10-18T11:38:07.048Z,9.30
2022-10-18T11:41:26.949Z,8.50
2022-10-18T11:44:44.035Z,7.73
2022-10-18T11:47:57.269Z,8.93
2022-10-18T11:51:14.863Z,8.60
2022-10-18T11:54:27.253Z,8.63
2022-10-18T11:57:39.238Z,8.70
2022-10-18T12:01:01.647Z,8.43
2022-10-18T12:04:17.494Z,8.73
2022-10-18T12:07:27.827Z,9.32
2022-10-18T12:10:45.826Z,8.63
2022-10-18T12:14:04.758Z,8.50
2022-10-18T12:17:50.069Z,9.33
2022-10-18T12:20:57.007Z,8.43
2022-10-18T12:24:11.589Z,9.30
2022-10-18T12:27:17.031Z,9.27
2022-10-18T12:30:52.957Z,8.80
2022-10-18T12:34:21.256Z,8.73
2022-10-18T12:37:49.833Z,8.67
2022-10-18T12:40:55.758Z,8.10
2022-10-18T12:44:19.541Z,9.45
2022-10-18T12:47:26.421Z,8.52
2022-10-18T12:50:36.742Z,8.20
2022-10-18T12:53:42.254Z,8.43
2022-10-18T12:56:46.802Z,8.43
2022-10-18T12:59:50.654Z,8.25
2022-10-18T13:03:14.296Z,9.60
2022-10-18T13:06:17.784Z,10.20
2022-10-18T13:09:21.987Z,9.87
2022-10-18T13:12:25.286Z,10.48
2022-10-18T13:15:49.266Z,10.07
2022-10-18T13:19:01.406Z,9.35
2022-10-18T13:22:32.548Z,9.97
2022-10-18T13:25:48.222Z,9.47
2022-10-18T13:28:56.947Z,9.65
2022-10-18T13:32:22.333Z,9.77
2022-10-18T13:36:06.559Z,8.93
2022-10-18T13:39:20.166Z,8.73
2022-10-18T13:42:32.880Z,8.80
2022-10-18T13:45:43.757Z,8.82
2022-10-18T13:48:49.718Z,8.25
2022-10-18T13:52:21.154Z,8.30
2022-10-18T13:55:36.327Z,10.10
2022-10-18T13:59:13.191Z,9.03
2022-10-18T14:02:50.324Z,8.80
2022-10-18T14:06:16.120Z,8.57
2022-10-18T14:12:54.744Z,8.30
2022-10-18T14:16:07.405Z,8.23
2022-10-18T14:19:43.034Z,8.88
2022-10-18T14:22:55.102Z,8.27
2022-10-18T14:26:12.575Z,9.00
2022-10-18T14:29:20.646Z,9.57
2022-10-18T14:32:28.306Z,9.37
2022-10-18T14:35:33.713Z,8.70
2022-10-18T14:38:47.336Z,9.65
2022-10-18T14:41:55.561Z,9.27
2022-10-18T14:44:59.156Z,8.77
2022-10-18T14:48:14.634Z,8.50
2022-10-18T14:51:18.431Z,9.15
2022-10-18T14:54:31.644Z,9.57
2022-10-18T14:57:37.629Z,10.00
2022-10-18T15:00:42.875Z,9.70
2022-10-18T15:03:49.173Z,9.13
2022-10-18T15:06:52.510Z,9.35
2022-10-18T15:09:59.314Z,10.10
2022-10-18T15:13:09.856Z,9.88
2022-10-18T15:16:22.618Z,10.27
2022-10-18T15:19:33.353Z,10.07
2022-10-18T15:22:36.723Z,10.63
2022-10-18T15:25:40.033Z,10.38
2022-10-18T15:29:00.446Z,11.23
2022-10-18T15:32:18.522Z,14.17
2022-10-18T15:35:32.420Z,12.93
2022-10-18T15:38:37.438Z,17.80
2022-10-18T15:41:55.801Z,15.68
2022-10-18T15:44:59.193Z,18.17
2022-10-18T15:48:02.650Z,14.47
2022-10-18T15:51:26.782Z,14.97
2022-10-18T15:54:31.032Z,19.80
2022-10-18T15:57:34.587Z,15.95
2022-10-18T16:00:38.259Z,15.40
2022-10-18T16:03:42.101Z,15.37
2022-10-18T16:06:45.479Z,17.13
2022-10-18T16:09:48.822Z,18.10
2022-10-18T16:12:52.246Z,28.70
2022-10-18T16:15:56.094Z,32.33
2022-10-18T16:18:59.828Z,30.13
2022-10-18T16:22:06.690Z,30.07
2022-10-18T16:25:10.194Z,27.73
2022-10-18T16:28:19.739Z,26.60
2022-10-18T16:31:26.444Z,24.52
2022-10-18T16:34:32.101Z,25.03
2022-10-18T16:37:35.567Z,25.50
2022-10-18T16:40:41.348Z,24.83
2022-10-18T16:43:46.714Z,28.00
2022-10-18T16:46:52.536Z,26.35
2022-10-18T16:49:57.560Z,31.77
2022-10-18T16:53:00.964Z,29.43
2022-10-18T16:56:05.709Z,26.75
2022-10-18T16:59:20.720Z,25.77
2022-10-18T17:02:24.025Z,25.33
2022-10-18T17:05:27.383Z,24.70
2022-10-18T17:08:31.437Z,27.07
2022-10-18T17:11:34.817Z,26.88
2022-10-18T17:14:38.308Z,25.38
2022-10-18T17:17:41.795Z,27.70
2022-10-18T17:20:45.851Z,29.40
2022-10-18T17:23:55.509Z,29.83
2022-10-18T17:26:58.901Z,28.27
2022-10-18T17:30:02.457Z,30.10
2022-10-18T17:33:08.607Z,30.02
2022-10-18T17:36:12.456Z,28.47
2022-10-18T17:39:15.966Z,25.00
2022-10-18T17:42:21.468Z,23.48
2022-10-18T17:45:25.034Z,23.52
2022-10-18T17:48:29.221Z,23.40
2022-10-18T17:51:32.745Z,21.27
2022-10-18T17:54:36.130Z,23.03
2022-10-18T17:57:41.376Z,20.05
2022-10-18T18:00:48.025Z,18.42
2022-10-18T18:03:57.974Z,19.00
2022-10-18T18:07:03.344Z,19.23
2022-10-18T18:10:07.052Z,20.47
2022-10-18T18:13:10.646Z,25.60
2022-10-18T18:16:20.420Z,29.55
2022-10-18T18:19:24.075Z,23.45
2022-10-18T18:22:27.475Z,33.13
2022-10-18T18:25:33.050Z,39.73
2022-10-18T18:28:37.272Z,43.38
2022-10-18T18:31:43.485Z,35.88
2022-10-18T18:34:47.138Z,28.63
2022-10-18T18:37:51.281Z,27.77
2022-10-18T18:41:16.051Z,33.63
2022-10-18T18:44:20.744Z,28.10
2022-10-18T18:47:24.159Z,25.10
2022-10-18T18:50:29.169Z,20.60
2022-10-18T18:53:32.546Z,18.13
2022-10-18T18:56:36.566Z,20.40
2022-10-18T18:59:40.012Z,20.08
2022-10-18T19:02:43.344Z,20.80
2022-10-18T19:05:46.786Z,33.70
2022-10-18T19:08:52.681Z,36.47
2022-10-18T19:11:57.180Z,28.10
2022-10-18T19:15:00.594Z,25.80
2022-10-18T19:18:05.582Z,19.58
2022-10-18T19:21:08.929Z,19.48
2022-10-18T19:24:13.351Z,20.17
2022-10-18T19:27:16.607Z,19.53
2022-10-18T19:30:20.633Z,21.17
2022-10-18T19:33:41.328Z,23.83
2022-10-18T19:36:49.853Z,22.73
2022-10-18T19:39:53.196Z,23.00
2022-10-18T19:42:56.567Z,21.50
2022-10-18T19:46:03.759Z,21.95
2022-10-18T19:49:07.153Z,21.02
2022-10-18T19:52:12.391Z,20.13
2022-10-18T19:55:15.818Z,19.40
2022-10-18T19:58:19.132Z,16.90
2022-10-18T20:01:22.826Z,17.05
2022-10-18T20:04:26.262Z,17.90
2022-10-18T20:07:30.186Z,17.50
2022-10-18T20:10:35.725Z,17.73
2022-10-18T20:13:39.802Z,18.00
2022-10-18T20:16:43.143Z,18.23
2022-10-18T20:19:47.969Z,17.35
2022-10-18T20:22:51.186Z,17.65
2022-10-18T20:26:06.716Z,21.90
2022-10-18T20:29:10.223Z,18.57
2022-10-18T20:32:14.658Z,19.23
2022-10-18T20:35:18.159Z,27.20
2022-10-18T20:38:21.438Z,24.73
2022-10-18T20:41:30.039Z,20.50
2022-10-18T20:44:34.070Z,17.83
2022-10-18T20:47:37.532Z,21.08
2022-10-18T20:50:42.299Z,23.25
2022-10-18T20:53:45.641Z,19.52
2022-10-18T20:56:48.887Z,18.87
2022-10-18T20:59:52.223Z,19.63
2022-10-18T21:02:58.862Z,21.35
2022-10-18T21:06:07.550Z,20.73
2022-10-18T21:09:15.706Z,19.40
2022-10-18T21:12:19.030Z,19.43
2022-10-18T21:15:22.338Z,21.70
2022-10-18T21:18:33.778Z,19.70
2022-10-18T21:21:37.147Z,19.95
2022-10-18T21:24:40.510Z,20.55
2022-10-18T21:27:45.179Z,21.40
2022-10-18T21:30:51.710Z,19.57
2022-10-18T21:34:00.345Z,18.10
2022-10-18T21:37:03.671Z,20.05
2022-10-18T21:40:07.762Z,19.52
2022-10-18T21:43:11.928Z,34.80
2022-10-18T21:46:17.476Z,18.63
2022-10-18T21:49:23.428Z,18.20
2022-10-18T21:52:26.719Z,27.33
2022-10-18T21:55:30.021Z,20.02
2022-10-18T21:58:34.204Z,20.03
2022-10-18T22:01:39.466Z,20.90
2022-10-18T22:04:42.793Z,20.48
2022-10-18T22:07:46.145Z,20.48
2022-10-18T22:10:49.451Z,22.75
2022-10-18T22:13:53.736Z,22.83
2022-10-18T22:16:57.138Z,22.80
2022-10-18T22:20:00.607Z,23.75
2022-10-18T22:23:03.949Z,23.20
2022-10-18T22:26:14.159Z,24.88
2022-10-18T22:29:20.012Z,25.00
2022-10-18T22:32:23.983Z,23.50
2022-10-18T22:35:31.659Z,22.25
2022-10-18T22:38:35.773Z,22.70
2022-10-18T22:41:39.068Z,19.38
2022-10-18T22:44:42.383Z,22.10
2022-10-18T22:47:45.730Z,20.07
2022-10-18T22:50:50.908Z,22.65
2022-10-18T22:53:54.228Z,21.35
2022-10-18T22:56:57.577Z,23.67
2022-10-18T23:00:01.044Z,21.60
2022-10-18T23:03:04.495Z,21.13
2022-10-18T23:06:24.498Z,21.33
2022-10-18T23:09:27.886Z,21.95
2022-10-18T23:12:31.396Z,20.02
2022-10-18T23:15:35.682Z,20.23
2022-10-18T23:21:47.557Z,18.20
2022-10-18T23:24:50.846Z,20.55
2022-10-18T23:27:54.420Z,18.35
2022-10-18T23:30:57.860Z,20.47
2022-10-18T23:34:04.499Z,19.87
2022-10-18T23:37:07.792Z,19.35
2022-10-18T23:40:13.032Z,19.27
2022-10-18T23:43:16.533Z,18.80
2022-10-18T23:46:20.291Z,19.10
2022-10-18T23:49:23.506Z,18.93
2022-10-18T23:52:26.838Z,19.08
2022-10-18T23:55:30.150Z,19.73
2022-10-18T23:58:34.706Z,18.38
